sensor_id;sensor_type;location;lat;lon;timestamp;P1;durP1;ratioP1;P2;durP2;ratioP2
49472;SDS011;67434;50.956;6.918;2023-04-01T00:02:37;0.93;;;0.17;;
49472;SDS011;67434;50.956;6.918;2023-04-01T00:05:23;0.57;;;0.57;;
49472;SDS011;67434;50.956;6.918;2023-04-01T00:08:09;1.95;;;0.30;;
49472;SDS011;67434;50.956;6.918;2023-04-01T00:10:55;1.05;;;0.10;;
49472;SDS011;67434;50.956;6.918;2023-04-01T00:13:42;1.67;;;0.25;;
49472;SDS011;67434;50.956;6.918;2023-04-01T00:16:28;2.78;;;0.30;;
49472;SDS011;67434;50.956;6.918;2023-04-01T00:19:14;0.75;;;0.25;;
49472;SDS011;67434;50.956;6.918;2023-04-01T00:22:00;1.75;;;0.20;;
49472;SDS011;67434;50.956;6.918;2023-04-01T00:24:46;0.98;;;0.20;;
49472;SDS011;67434;50.956;6.918;2023-04-01T00:27:32;0.63;;;0.20;;
49472;SDS011;67434;50.956;6.918;2023-04-01T00:30:18;1.20;;;0.20;;
49472;SDS011;67434;50.956;6.918;2023-04-01T00:33:03;2.40;;;0.20;;
49472;SDS011;67434;50.956;6.918;2023-04-01T00:35:50;1.98;;;0.28;;
49472;SDS011;67434;50.956;6.918;2023-04-01T00:38:36;0.88;;;0.80;;
49472;SDS011;67434;50.956;6.918;2023-04-01T00:41:22;1.05;;;0.20;;
49472;SDS011;67434;50.956;6.918;2023-04-01T00:44:11;4.45;;;0.22;;
49472;SDS011;67434;50.956;6.918;2023-04-01T00:47:01;2.88;;;0.38;;
49472;SDS011;67434;50.956;6.918;2023-04-01T00:49:48;0.77;;;0.20;;
49472;SDS011;67434;50.956;6.918;2023-04-01T00:52:36;2.83;;;0.30;;
49472;SDS011;67434;50.956;6.918;2023-04-01T00:55:22;1.10;;;0.30;;
49472;SDS011;67434;50.956;6.918;2023-04-01T00:58:09;1.05;;;0.10;;
49472;SDS011;67434;50.956;6.918;2023-04-01T01:00:59;0.52;;;0.10;;
49472;SDS011;67434;50.956;6.918;2023-04-01T01:03:45;2.05;;;0.25;;
49472;SDS011;67434;50.956;6.918;2023-04-01T01:06:39;1.13;;;0.57;;
49472;SDS011;67434;50.956;6.918;2023-04-01T01:12:26;1.10;;;0.20;;
49472;SDS011;67434;50.956;6.918;2023-04-01T01:15:21;1.95;;;0.10;;
49472;SDS011;67434;50.956;6.918;2023-04-01T01:24:40;1.20;;;0.10;;
49472;SDS011;67434;50.956;6.918;2023-04-01T01:27:37;0.43;;;0.10;;
49472;SDS011;67434;50.956;6.918;2023-04-01T01:33:25;0.65;;;0.10;;
49472;SDS011;67434;50.956;6.918;2023-04-01T01:36:23;0.40;;;0.32;;
49472;SDS011;67434;50.956;6.918;2023-04-01T01:39:14;0.45;;;0.17;;
49472;SDS011;67434;50.956;6.918;2023-04-01T01:42:03;1.15;;;0.20;;
49472;SDS011;67434;50.956;6.918;2023-04-01T01:44:51;0.20;;;0.20;;
49472;SDS011;67434;50.956;6.918;2023-04-01T01:47:39;1.23;;;0.05;;
49472;SDS011;67434;50.956;6.918;2023-04-01T01:50:26;1.20;;;0.00;;
49472;SDS011;67434;50.956;6.918;2023-04-01T01:53:13;3.03;;;0.10;;
49472;SDS011;67434;50.956;6.918;2023-04-01T01:55:59;0.57;;;0.10;;
49472;SDS011;67434;50.956;6.918;2023-04-01T01:58:45;0.73;;;0.10;;
49472;SDS011;67434;50.956;6.918;2023-04-01T02:01:35;1.38;;;0.10;;
49472;SDS011;67434;50.956;6.918;2023-04-01T02:04:25;0.45;;;0.10;;
49472;SDS011;67434;50.956;6.918;2023-04-01T02:07:14;0.28;;;0.10;;
49472;SDS011;67434;50.956;6.918;2023-04-01T02:10:05;2.45;;;0.10;;
49472;SDS011;67434;50.956;6.918;2023-04-01T02:12:51;0.10;;;0.00;;
49472;SDS011;67434;50.956;6.918;2023-04-01T02:15:44;1.13;;;0.10;;
49472;SDS011;67434;50.956;6.918;2023-04-01T02:18:33;0.30;;;0.00;;
49472;SDS011;67434;50.956;6.918;2023-04-01T02:21:23;0.93;;;0.03;;
49472;SDS011;67434;50.956;6.918;2023-04-01T02:24:12;0.50;;;0.10;;
49472;SDS011;67434;50.956;6.918;2023-04-01T02:27:00;1.13;;;0.03;;
49472;SDS011;67434;50.956;6.918;2023-04-01T02:29:46;0.63;;;0.10;;
49472;SDS011;67434;50.956;6.918;2023-04-01T02:32:33;0.55;;;0.10;;
49472;SDS011;67434;50.956;6.918;2023-04-01T02:35:23;0.45;;;0.10;;
49472;SDS011;67434;50.956;6.918;2023-04-01T02:38:09;0.55;;;0.00;;
49472;SDS011;67434;50.956;6.918;2023-04-01T02:40:58;0.57;;;0.17;;
49472;SDS011;67434;50.956;6.918;2023-04-01T02:43:46;2.95;;;0.20;;
49472;SDS011;67434;50.956;6.918;2023-04-01T02:46:31;2.40;;;0.20;;
49472;SDS011;67434;50.956;6.918;2023-04-01T02:49:17;1.35;;;0.10;;
49472;SDS011;67434;50.956;6.918;2023-04-01T02:52:02;1.35;;;0.15;;
49472;SDS011;67434;50.956;6.918;2023-04-01T02:54:48;2.40;;;0.13;;
49472;SDS011;67434;50.956;6.918;2023-04-01T02:57:34;1.40;;;0.10;;
49472;SDS011;67434;50.956;6.918;2023-04-01T03:00:20;2.55;;;0.40;;
49472;SDS011;67434;50.956;6.918;2023-04-01T03:03:06;1.35;;;0.15;;
49472;SDS011;67434;50.956;6.918;2023-04-01T03:05:51;0.95;;;0.20;;
49472;SDS011;67434;50.956;6.918;2023-04-01T03:08:40;0.20;;;0.10;;
49472;SDS011;67434;50.956;6.918;2023-04-01T03:11:26;1.38;;;0.32;;
49472;SDS011;67434;50.956;6.918;2023-04-01T03:14:12;0.52;;;0.10;;
49472;SDS011;67434;50.956;6.918;2023-04-01T03:16:58;0.30;;;0.10;;
49472;SDS011;67434;50.956;6.918;2023-04-01T03:19:43;0.38;;;0.10;;
49472;SDS011;67434;50.956;6.918;2023-04-01T03:22:29;1.42;;;0.10;;
49472;SDS011;67434;50.956;6.918;2023-04-01T03:25:15;0.77;;;0.10;;
49472;SDS011;67434;50.956;6.918;2023-04-01T03:28:00;0.88;;;0.05;;
49472;SDS011;67434;50.956;6.918;2023-04-01T03:30:46;0.77;;;0.75;;
49472;SDS011;67434;50.956;6.918;2023-04-01T03:33:32;0.30;;;0.00;;
49472;SDS011;67434;50.956;6.918;2023-04-01T03:36:17;0.10;;;0.00;;
49472;SDS011;67434;50.956;6.918;2023-04-01T03:39:03;0.10;;;0.00;;
49472;SDS011;67434;50.956;6.918;2023-04-01T03:41:49;0.17;;;0.00;;
49472;SDS011;67434;50.956;6.918;2023-04-01T03:44:35;0.10;;;0.10;;
49472;SDS011;67434;50.956;6.918;2023-04-01T03:47:20;1.17;;;0.00;;
49472;SDS011;67434;50.956;6.918;2023-04-01T03:50:06;1.17;;;0.00;;
49472;SDS011;67434;50.956;6.918;2023-04-01T03:52:52;0.10;;;0.00;;
49472;SDS011;67434;50.956;6.918;2023-04-01T03:55:38;0.17;;;0.10;;
49472;SDS011;67434;50.956;6.918;2023-04-01T03:58:24;0.10;;;0.00;;
49472;SDS011;67434;50.956;6.918;2023-04-01T04:01:17;0.20;;;0.10;;
49472;SDS011;67434;50.956;6.918;2023-04-01T04:04:05;0.25;;;0.10;;
49472;SDS011;67434;50.956;6.918;2023-04-01T04:06:51;1.65;;;0.00;;
49472;SDS011;67434;50.956;6.918;2023-04-01T04:09:37;1.05;;;0.13;;
49472;SDS011;67434;50.956;6.918;2023-04-01T04:12:23;1.13;;;0.00;;
49472;SDS011;67434;50.956;6.918;2023-04-01T04:15:08;0.03;;;0.00;;
49472;SDS011;67434;50.956;6.918;2023-04-01T04:17:54;0.32;;;0.00;;
49472;SDS011;67434;50.956;6.918;2023-04-01T04:20:44;0.10;;;0.00;;
49472;SDS011;67434;50.956;6.918;2023-04-01T04:23:36;1.65;;;0.00;;
49472;SDS011;67434;50.956;6.918;2023-04-01T04:26:22;0.00;;;0.00;;
49472;SDS011;67434;50.956;6.918;2023-04-01T04:29:08;0.00;;;0.00;;
49472;SDS011;67434;50.956;6.918;2023-04-01T04:31:53;0.43;;;0.00;;
49472;SDS011;67434;50.956;6.918;2023-04-01T04:34:39;0.30;;;0.00;;
49472;SDS011;67434;50.956;6.918;2023-04-01T04:37:25;0.00;;;0.00;;
49472;SDS011;67434;50.956;6.918;2023-04-01T04:40:11;0.00;;;0.00;;
49472;SDS011;67434;50.956;6.918;2023-04-01T04:42:56;0.00;;;0.00;;
49472;SDS011;67434;50.956;6.918;2023-04-01T04:45:42;0.08;;;0.00;;
49472;SDS011;67434;50.956;6.918;2023-04-01T04:48:28;0.38;;;0.00;;
49472;SDS011;67434;50.956;6.918;2023-04-01T04:51:14;0.00;;;0.00;;
49472;SDS011;67434;50.956;6.918;2023-04-01T04:54:02;0.00;;;0.00;;
49472;SDS011;67434;50.956;6.918;2023-04-01T04:56:50;0.00;;;0.00;;
49472;SDS011;67434;50.956;6.918;2023-04-01T04:59:36;1.27;;;0.00;;
49472;SDS011;67434;50.956;6.918;2023-04-01T05:02:22;1.00;;;0.08;;
49472;SDS011;67434;50.956;6.918;2023-04-01T05:05:08;0.50;;;0.00;;
49472;SDS011;67434;50.956;6.918;2023-04-01T05:07:54;0.40;;;0.08;;
49472;SDS011;67434;50.956;6.918;2023-04-01T05:10:39;0.43;;;0.00;;
49472;SDS011;67434;50.956;6.918;2023-04-01T05:13:25;0.98;;;0.00;;
49472;SDS011;67434;50.956;6.918;2023-04-01T05:16:12;1.27;;;0.10;;
49472;SDS011;67434;50.956;6.918;2023-04-01T05:19:00;1.95;;;0.20;;
49472;SDS011;67434;50.956;6.918;2023-04-01T05:21:45;0.60;;;0.00;;
49472;SDS011;67434;50.956;6.918;2023-04-01T05:24:31;0.35;;;0.00;;
49472;SDS011;67434;50.956;6.918;2023-04-01T05:27:18;0.00;;;0.00;;
49472;SDS011;67434;50.956;6.918;2023-04-01T05:30:04;0.75;;;0.03;;
49472;SDS011;67434;50.956;6.918;2023-04-01T05:32:50;0.45;;;0.00;;
49472;SDS011;67434;50.956;6.918;2023-04-01T05:35:36;0.10;;;0.00;;
49472;SDS011;67434;50.956;6.918;2023-04-01T05:38:22;0.45;;;0.10;;
49472;SDS011;67434;50.956;6.918;2023-04-01T05:41:08;1.55;;;0.10;;
49472;SDS011;67434;50.956;6.918;2023-04-01T05:43:54;0.13;;;0.00;;
49472;SDS011;67434;50.956;6.918;2023-04-01T05:46:40;1.73;;;0.10;;
49472;SDS011;67434;50.956;6.918;2023-04-01T05:49:26;0.20;;;0.00;;
49472;SDS011;67434;50.956;6.918;2023-04-01T05:52:11;0.25;;;0.10;;
49472;SDS011;67434;50.956;6.918;2023-04-01T05:54:58;0.35;;;0.10;;
49472;SDS011;67434;50.956;6.918;2023-04-01T05:57:45;0.85;;;0.25;;
49472;SDS011;67434;50.956;6.918;2023-04-01T06:00:33;0.63;;;0.10;;
49472;SDS011;67434;50.956;6.918;2023-04-01T06:03:19;0.57;;;0.20;;
49472;SDS011;67434;50.956;6.918;2023-04-01T06:06:04;1.75;;;0.60;;
49472;SDS011;67434;50.956;6.918;2023-04-01T06:09:06;3.28;;;0.20;;
49472;SDS011;67434;50.956;6.918;2023-04-01T06:30:42;0.93;;;0.38;;
49472;SDS011;67434;50.956;6.918;2023-04-01T06:33:34;0.85;;;0.30;;
49472;SDS011;67434;50.956;6.918;2023-04-01T06:36:25;0.32;;;0.15;;
49472;SDS011;67434;50.956;6.918;2023-04-01T06:42:30;0.30;;;0.20;;
49472;SDS011;67434;50.956;6.918;2023-04-01T06:45:36;0.43;;;0.28;;
49472;SDS011;67434;50.956;6.918;2023-04-01T06:48:48;0.60;;;0.30;;
49472;SDS011;67434;50.956;6.918;2023-04-01T06:55:17;2.28;;;0.88;;
49472;SDS011;67434;50.956;6.918;2023-04-01T06:59:01;2.58;;;0.40;;
49472;SDS011;67434;50.956;6.918;2023-04-01T07:01:36;3.38;;;0.55;;
49472;SDS011;67434;50.956;6.918;2023-04-01T07:07:21;1.30;;;1.15;;
49472;SDS011;67434;50.956;6.918;2023-04-01T07:10:20;0.70;;;0.40;;
49472;SDS011;67434;50.956;6.918;2023-04-01T07:13:20;0.47;;;0.35;;
49472;SDS011;67434;50.956;6.918;2023-04-01T07:16:23;0.98;;;0.50;;
49472;SDS011;67434;50.956;6.918;2023-04-01T07:19:17;0.82;;;0.50;;
49472;SDS011;67434;50.956;6.918;2023-04-01T07:22:05;1.45;;;0.50;;
49472;SDS011;67434;50.956;6.918;2023-04-01T07:25:05;1.15;;;0.50;;
49472;SDS011;67434;50.956;6.918;2023-04-01T07:28:04;2.07;;;0.60;;
49472;SDS011;67434;50.956;6.918;2023-04-01T07:37:06;1.48;;;0.43;;
49472;SDS011;67434;50.956;6.918;2023-04-01T07:40:16;5.00;;;2.10;;
49472;SDS011;67434;50.956;6.918;2023-04-01T07:55:51;2.17;;;0.50;;
49472;SDS011;67434;50.956;6.918;2023-04-01T07:59:43;0.30;;;0.30;;
49472;SDS011;67434;50.956;6.918;2023-04-01T08:02:34;1.83;;;0.55;;
49472;SDS011;67434;50.956;6.918;2023-04-01T08:05:46;0.80;;;0.40;;
49472;SDS011;67434;50.956;6.918;2023-04-01T08:09:04;0.93;;;0.35;;
49472;SDS011;67434;50.956;6.918;2023-04-01T08:17:57;1.52;;;0.95;;
49472;SDS011;67434;50.956;6.918;2023-04-01T08:23:42;1.33;;;0.52;;
49472;SDS011;67434;50.956;6.918;2023-04-01T08:32:26;1.35;;;0.30;;
49472;SDS011;67434;50.956;6.918;2023-04-01T08:38:20;3.35;;;0.30;;
49472;SDS011;67434;50.956;6.918;2023-04-01T08:41:23;0.70;;;0.30;;
49472;SDS011;67434;50.956;6.918;2023-04-01T08:50:15;0.22;;;0.17;;
49472;SDS011;67434;50.956;6.918;2023-04-01T08:53:14;0.57;;;0.20;;
49472;SDS011;67434;50.956;6.918;2023-04-01T09:05:59;0.50;;;0.10;;
49472;SDS011;67434;50.956;6.918;2023-04-01T09:21:19;1.17;;;0.30;;
49472;SDS011;67434;50.956;6.918;2023-04-01T09:24:26;0.70;;;0.30;;
49472;SDS011;67434;50.956;6.918;2023-04-01T09:33:54;2.40;;;0.30;;
49472;SDS011;67434;50.956;6.918;2023-04-01T09:40:18;0.30;;;0.20;;
49472;SDS011;67434;50.956;6.918;2023-04-01T09:52:48;1.85;;;0.30;;
49472;SDS011;67434;50.956;6.918;2023-04-01T09:55:53;0.50;;;0.20;;
49472;SDS011;67434;50.956;6.918;2023-04-01T10:27:26;0.63;;;0.30;;
49472;SDS011;67434;50.956;6.918;2023-04-01T10:36:56;2.78;;;0.68;;
49472;SDS011;67434;50.956;6.918;2023-04-01T10:42:55;0.88;;;0.63;;
49472;SDS011;67434;50.956;6.918;2023-04-01T11:14:58;2.33;;;1.10;;
49472;SDS011;67434;50.956;6.918;2023-04-01T11:24:13;0.50;;;0.40;;
49472;SDS011;67434;50.956;6.918;2023-04-01T11:33:20;0.47;;;0.30;;
49472;SDS011;67434;50.956;6.918;2023-04-01T11:36:18;0.60;;;0.30;;
49472;SDS011;67434;50.956;6.918;2023-04-01T11:39:15;2.40;;;0.40;;
49472;SDS011;67434;50.956;6.918;2023-04-01T11:47:55;0.50;;;0.30;;
49472;SDS011;67434;50.956;6.918;2023-04-01T11:54:13;0.57;;;0.40;;
49472;SDS011;67434;50.956;6.918;2023-04-01T12:00:33;1.15;;;0.68;;
49472;SDS011;67434;50.956;6.918;2023-04-01T12:07:15;0.88;;;0.60;;
49472;SDS011;67434;50.956;6.918;2023-04-01T12:10:15;2.58;;;0.60;;
49472;SDS011;67434;50.956;6.918;2023-04-01T12:16:04;1.87;;;1.27;;
49472;SDS011;67434;50.956;6.918;2023-04-01T12:19:58;0.45;;;0.32;;
49472;SDS011;67434;50.956;6.918;2023-04-01T12:32:23;0.52;;;0.30;;
49472;SDS011;67434;50.956;6.918;2023-04-01T12:35:24;0.63;;;0.43;;
49472;SDS011;67434;50.956;6.918;2023-04-01T12:38:30;0.75;;;0.40;;
49472;SDS011;67434;50.956;6.918;2023-04-01T12:55:58;1.90;;;0.55;;
49472;SDS011;67434;50.956;6.918;2023-04-01T13:13:54;1.20;;;0.60;;
49472;SDS011;67434;50.956;6.918;2023-04-01T13:16:48;1.23;;;0.70;;
49472;SDS011;67434;50.956;6.918;2023-04-01T13:19:49;0.80;;;0.60;;
49472;SDS011;67434;50.956;6.918;2023-04-01T13:25:54;1.42;;;0.98;;
49472;SDS011;67434;50.956;6.918;2023-04-01T13:28:49;0.77;;;0.50;;
49472;SDS011;67434;50.956;6.918;2023-04-01T13:47:30;1.25;;;0.63;;
49472;SDS011;67434;50.956;6.918;2023-04-01T13:54:30;1.20;;;1.00;;
49472;SDS011;67434;50.956;6.918;2023-04-01T14:12:54;1.50;;;1.00;;
49472;SDS011;67434;50.956;6.918;2023-04-01T14:18:45;1.52;;;1.10;;
49472;SDS011;67434;50.956;6.918;2023-04-01T14:21:40;2.13;;;1.30;;
49472;SDS011;67434;50.956;6.918;2023-04-01T14:24:36;2.33;;;0.90;;
49472;SDS011;67434;50.956;6.918;2023-04-01T14:27:34;2.03;;;1.45;;
49472;SDS011;67434;50.956;6.918;2023-04-01T14:33:43;1.65;;;1.00;;
49472;SDS011;67434;50.956;6.918;2023-04-01T14:36:53;2.55;;;1.52;;
49472;SDS011;67434;50.956;6.918;2023-04-01T14:45:35;3.00;;;1.50;;
49472;SDS011;67434;50.956;6.918;2023-04-01T14:48:36;1.30;;;0.90;;
49472;SDS011;67434;50.956;6.918;2023-04-01T14:51:36;1.15;;;0.80;;
49472;SDS011;67434;50.956;6.918;2023-04-01T14:54:35;1.65;;;1.10;;
49472;SDS011;67434;50.956;6.918;2023-04-01T14:57:24;1.63;;;0.90;;
49472;SDS011;67434;50.956;6.918;2023-04-01T15:00:16;1.25;;;0.95;;
49472;SDS011;67434;50.956;6.918;2023-04-01T15:03:15;2.28;;;1.35;;
49472;SDS011;67434;50.956;6.918;2023-04-01T15:12:03;1.00;;;0.80;;
49472;SDS011;67434;50.956;6.918;2023-04-01T15:15:10;2.00;;;1.30;;
49472;SDS011;67434;50.956;6.918;2023-04-01T15:18:05;1.63;;;1.17;;
49472;SDS011;67434;50.956;6.918;2023-04-01T15:24:24;3.45;;;1.25;;
49472;SDS011;67434;50.956;6.918;2023-04-01T15:27:15;2.97;;;2.15;;
49472;SDS011;67434;50.956;6.918;2023-04-01T15:30:52;2.22;;;1.52;;
49472;SDS011;67434;50.956;6.918;2023-04-01T15:37:02;1.92;;;1.23;;
49472;SDS011;67434;50.956;6.918;2023-04-01T15:39:57;3.22;;;1.42;;
49472;SDS011;67434;50.956;6.918;2023-04-01T15:43:02;3.40;;;1.70;;
49472;SDS011;67434;50.956;6.918;2023-04-01T15:55:25;3.40;;;1.60;;
49472;SDS011;67434;50.956;6.918;2023-04-01T15:58:27;3.28;;;1.50;;
49472;SDS011;67434;50.956;6.918;2023-04-01T16:04:44;2.20;;;1.73;;
49472;SDS011;67434;50.956;6.918;2023-04-01T16:10:52;3.28;;;1.55;;
49472;SDS011;67434;50.956;6.918;2023-04-01T16:17:16;2.65;;;1.55;;
49472;SDS011;67434;50.956;6.918;2023-04-01T16:20:17;2.55;;;1.65;;
49472;SDS011;67434;50.956;6.918;2023-04-01T16:29:46;1.98;;;1.40;;
49472;SDS011;67434;50.956;6.918;2023-04-01T16:32:53;2.45;;;1.65;;
49472;SDS011;67434;50.956;6.918;2023-04-01T16:35:47;2.55;;;1.75;;
49472;SDS011;67434;50.956;6.918;2023-04-01T16:38:43;2.53;;;1.70;;
49472;SDS011;67434;50.956;6.918;2023-04-01T16:45:06;2.28;;;1.73;;
49472;SDS011;67434;50.956;6.918;2023-04-01T16:48:12;2.67;;;1.77;;
49472;SDS011;67434;50.956;6.918;2023-04-01T16:51:09;3.25;;;2.10;;
49472;SDS011;67434;50.956;6.918;2023-04-01T16:54:02;2.70;;;1.73;;
49472;SDS011;67434;50.956;6.918;2023-04-01T17:02:49;2.28;;;1.58;;
49472;SDS011;67434;50.956;6.918;2023-04-01T17:18:46;2.88;;;1.70;;
49472;SDS011;67434;50.956;6.918;2023-04-01T17:21:49;4.35;;;1.80;;
49472;SDS011;67434;50.956;6.918;2023-04-01T17:31:20;3.70;;;1.67;;
49472;SDS011;67434;50.956;6.918;2023-04-01T17:37:39;1.90;;;1.30;;
49472;SDS011;67434;50.956;6.918;2023-04-01T17:40:49;2.67;;;1.60;;
49472;SDS011;67434;50.956;6.918;2023-04-01T17:43:45;2.42;;;1.52;;
49472;SDS011;67434;50.956;6.918;2023-04-01T17:46:51;2.05;;;1.60;;
49472;SDS011;67434;50.956;6.918;2023-04-01T17:53:03;3.00;;;1.77;;
49472;SDS011;67434;50.956;6.918;2023-04-01T18:02:23;4.10;;;1.88;;
49472;SDS011;67434;50.956;6.918;2023-04-01T18:05:40;4.65;;;2.20;;
49472;SDS011;67434;50.956;6.918;2023-04-01T18:15:14;2.40;;;1.90;;
49472;SDS011;67434;50.956;6.918;2023-04-01T18:27:17;3.30;;;2.10;;
49472;SDS011;67434;50.956;6.918;2023-04-01T18:39:15;3.53;;;2.60;;
49472;SDS011;67434;50.956;6.918;2023-04-01T18:48:52;5.22;;;2.53;;
49472;SDS011;67434;50.956;6.918;2023-04-01T18:51:54;3.97;;;2.45;;
49472;SDS011;67434;50.956;6.918;2023-04-01T18:58:18;3.22;;;2.22;;
49472;SDS011;67434;50.956;6.918;2023-04-01T19:04:03;3.97;;;2.55;;
49472;SDS011;67434;50.956;6.918;2023-04-01T19:06:57;3.65;;;2.38;;
49472;SDS011;67434;50.956;6.918;2023-04-01T19:09:46;4.70;;;2.65;;
49472;SDS011;67434;50.956;6.918;2023-04-01T19:18:48;3.67;;;2.78;;
49472;SDS011;67434;50.956;6.918;2023-04-01T19:21:57;3.28;;;2.40;;
49472;SDS011;67434;50.956;6.918;2023-04-01T19:27:52;2.77;;;2.17;;
49472;SDS011;67434;50.956;6.918;2023-04-01T19:33:48;2.47;;;2.08;;
49472;SDS011;67434;50.956;6.918;2023-04-01T19:36:50;2.22;;;1.90;;
49472;SDS011;67434;50.956;6.918;2023-04-01T19:39:46;4.38;;;2.65;;
49472;SDS011;67434;50.956;6.918;2023-04-01T19:49:04;3.78;;;2.75;;
49472;SDS011;67434;50.956;6.918;2023-04-01T19:54:53;5.55;;;3.10;;
49472;SDS011;67434;50.956;6.918;2023-04-01T20:00:54;5.70;;;3.35;;
49472;SDS011;67434;50.956;6.918;2023-04-01T20:03:48;4.10;;;3.33;;
49472;SDS011;67434;50.956;6.918;2023-04-01T20:06:44;5.53;;;3.13;;
49472;SDS011;67434;50.956;6.918;2023-04-01T20:15:55;6.65;;;3.58;;
49472;SDS011;67434;50.956;6.918;2023-04-01T20:18:56;6.30;;;4.88;;
49472;SDS011;67434;50.956;6.918;2023-04-01T20:21:47;5.75;;;3.97;;
49472;SDS011;67434;50.956;6.918;2023-04-01T20:24:37;4.88;;;3.58;;
49472;SDS011;67434;50.956;6.918;2023-04-01T20:28:12;5.43;;;4.15;;
49472;SDS011;67434;50.956;6.918;2023-04-01T20:51:53;4.60;;;3.30;;
49472;SDS011;67434;50.956;6.918;2023-04-01T20:57:50;5.35;;;3.33;;
49472;SDS011;67434;50.956;6.918;2023-04-01T21:00:45;4.53;;;3.53;;
49472;SDS011;67434;50.956;6.918;2023-04-01T21:03:38;8.40;;;5.30;;
49472;SDS011;67434;50.956;6.918;2023-04-01T21:18:40;4.00;;;2.72;;
49472;SDS011;67434;50.956;6.918;2023-04-01T21:31:05;3.30;;;2.53;;
49472;SDS011;67434;50.956;6.918;2023-04-01T21:34:34;3.58;;;2.42;;
49472;SDS011;67434;50.956;6.918;2023-04-01T22:07:55;2.63;;;1.95;;
49472;SDS011;67434;50.956;6.918;2023-04-01T22:11:11;3.33;;;2.20;;
49472;SDS011;67434;50.956;6.918;2023-04-01T22:17:32;3.97;;;2.45;;
49472;SDS011;67434;50.956;6.918;2023-04-01T22:20:35;6.22;;;3.00;;
49472;SDS011;67434;50.956;6.918;2023-04-01T22:23:26;8.45;;;3.00;;
49472;SDS011;67434;50.956;6.918;2023-04-01T22:26:22;6.13;;;3.80;;
49472;SDS011;67434;50.956;6.918;2023-04-01T22:32:12;6.25;;;4.28;;
49472;SDS011;67434;50.956;6.918;2023-04-01T22:35:10;6.95;;;3.55;;
49472;SDS011;67434;50.956;6.918;2023-04-01T22:46:37;6.25;;;3.60;;
49472;SDS011;67434;50.956;6.918;2023-04-01T22:49:36;5.80;;;3.58;;
49472;SDS011;67434;50.956;6.918;2023-04-01T22:55:28;7.00;;;4.28;;
49472;SDS011;67434;50.956;6.918;2023-04-01T22:58:21;5.03;;;4.20;;
49472;SDS011;67434;50.956;6.918;2023-04-01T23:01:17;6.40;;;4.32;;
49472;SDS011;67434;50.956;6.918;2023-04-01T23:04:07;5.90;;;3.65;;
49472;SDS011;67434;50.956;6.918;2023-04-01T23:07:00;5.00;;;3.80;;
49472;SDS011;67434;50.956;6.918;2023-04-01T23:09:49;7.18;;;4.38;;
49472;SDS011;67434;50.956;6.918;2023-04-01T23:12:36;7.95;;;4.70;;
49472;SDS011;67434;50.956;6.918;2023-04-01T23:15:24;6.38;;;4.40;;
49472;SDS011;67434;50.956;6.918;2023-04-01T23:24:02;7.45;;;4.55;;
49472;SDS011;67434;50.956;6.918;2023-04-01T23:27:02;7.20;;;4.80;;
49472;SDS011;67434;50.956;6.918;2023-04-01T23:29:55;8.23;;;4.57;;
49472;SDS011;67434;50.956;6.918;2023-04-01T23:32:41;8.40;;;5.13;;
49472;SDS011;67434;50.956;6.918;2023-04-01T23:35:27;7.45;;;4.55;;
49472;SDS011;67434;50.956;6.918;2023-04-01T23:38:12;6.15;;;4.40;;
49472;SDS011;67434;50.956;6.918;2023-04-01T23:40:58;9.90;;;6.10;;
49472;SDS011;67434;50.956;6.918;2023-04-01T23:43:45;7.35;;;5.18;;
49472;SDS011;67434;50.956;6.918;2023-04-01T23:46:34;6.50;;;4.82;;
49472;SDS011;67434;50.956;6.918;2023-04-01T23:49:21;6.22;;;4.60;;
49472;SDS011;67434;50.956;6.918;2023-04-01T23:52:25;7.05;;;4.95;;
49472;SDS011;67434;50.956;6.918;2023-04-01T23:55:14;7.68;;;5.18;;
